createdAt,value
2022-11-10T00:01:17.547Z,1.77
2022-11-10T00:03:45.883Z,2.08
2022-11-10T00:06:14.233Z,2.85
2022-11-10T00:08:42.541Z,4.38
2022-11-10T00:11:10.881Z,1.10
2022-11-10T00:14:00.778Z,1.63
2022-11-10T00:16:48.797Z,1.00
2022-11-10T00:19:17.228Z,1.15
2022-11-10T00:21:45.505Z,3.50
2022-11-10T00:24:16.286Z,1.52
2022-11-10T00:26:44.581Z,1.98
2022-11-10T00:29:12.981Z,2.50
2022-11-10T00:31:42.718Z,2.78
2022-11-10T00:34:15.418Z,1.95
2022-11-10T00:36:49.694Z,4.18
2022-11-10T00:39:18.013Z,2.45
2022-11-10T00:41:46.377Z,1.25
2022-11-10T00:44:14.743Z,1.42
2022-11-10T00:46:44.380Z,1.38
2022-11-10T00:49:15.498Z,2.30
2022-11-10T00:51:43.809Z,2.38
2022-11-10T00:54:14.521Z,1.90
2022-11-10T00:56:42.797Z,2.55
2022-11-10T00:59:13.650Z,1.88
2022-11-10T01:01:52.437Z,3.00
2022-11-10T01:04:20.688Z,1.52
2022-11-10T01:06:49.080Z,2.47
2022-11-10T01:09:17.353Z,2.28
2022-11-10T01:11:45.765Z,1.52
2022-11-10T01:14:14.039Z,1.60
2022-11-10T01:16:42.361Z,2.58
2022-11-10T01:19:13.544Z,1.95
2022-11-10T01:21:41.847Z,2.20
2022-11-10T01:24:10.158Z,1.52
2022-11-10T01:26:44.501Z,2.28
2022-11-10T01:29:12.799Z,4.63
2022-11-10T01:31:46.135Z,1.55
2022-11-10T01:34:24.815Z,2.03
2022-11-10T01:36:53.092Z,1.38
2022-11-10T01:39:21.605Z,2.13
2022-11-10T01:41:49.886Z,1.77
2022-11-10T01:44:27.893Z,3.90
2022-11-10T01:46:58.374Z,0.90
2022-11-10T01:49:28.434Z,2.33
2022-11-10T01:51:58.601Z,2.78
2022-11-10T01:54:29.188Z,0.88
2022-11-10T01:57:00.127Z,3.17
2022-11-10T01:59:32.267Z,2.80
2022-11-10T02:02:03.162Z,4.25
2022-11-10T02:04:35.384Z,3.50
2022-11-10T02:07:03.752Z,2.38
2022-11-10T02:09:42.154Z,2.97
2022-11-10T02:12:10.422Z,2.80
2022-11-10T02:14:38.707Z,1.25
2022-11-10T02:17:07.199Z,3.22
2022-11-10T02:19:42.381Z,1.35
2022-11-10T02:22:12.010Z,2.05
2022-11-10T02:24:43.014Z,1.88
2022-11-10T02:27:11.289Z,1.50
2022-11-10T02:29:40.282Z,3.15
2022-11-10T02:32:12.009Z,2.55
2022-11-10T02:34:49.351Z,3.80
2022-11-10T02:37:18.981Z,1.48
2022-11-10T02:39:47.263Z,1.50
2022-11-10T02:42:15.551Z,1.55
2022-11-10T02:44:43.845Z,2.28
2022-11-10T02:47:12.117Z,2.15
2022-11-10T02:49:40.397Z,3.03
2022-11-10T02:52:08.657Z,3.70
2022-11-10T02:54:38.261Z,2.42
2022-11-10T02:57:06.535Z,2.38
2022-11-10T02:59:34.821Z,2.47
2022-11-10T03:02:03.108Z,1.88
2022-11-10T03:04:31.404Z,1.92
2022-11-10T03:06:59.708Z,1.70
2022-11-10T03:09:28.022Z,1.30
2022-11-10T03:11:57.723Z,2.58
2022-11-10T03:14:26.014Z,1.77
2022-11-10T03:16:54.278Z,2.33
2022-11-10T03:19:22.574Z,0.70
2022-11-10T03:21:50.854Z,1.95
2022-11-10T03:24:19.192Z,3.42
2022-11-10T03:26:47.472Z,2.05
2022-11-10T03:29:17.130Z,2.58
2022-11-10T03:31:47.590Z,3.30
2022-11-10T03:34:15.836Z,3.75
2022-11-10T03:36:44.119Z,1.15
2022-11-10T03:39:12.406Z,1.77
2022-11-10T03:41:40.682Z,2.75
2022-11-10T03:44:08.978Z,1.98
2022-11-10T03:46:42.735Z,1.83
2022-11-10T03:49:11.748Z,1.27
2022-11-10T03:51:40.041Z,1.75
2022-11-10T03:54:08.464Z,2.50
2022-11-10T03:56:36.721Z,1.10
2022-11-10T03:59:07.807Z,3.00
2022-11-10T04:01:41.903Z,3.65
2022-11-10T04:04:33.521Z,1.95
2022-11-10T04:07:19.286Z,2.88
2022-11-10T04:09:49.703Z,2.33
2022-11-10T04:12:31.860Z,4.07
2022-11-10T04:15:17.695Z,2.63
2022-11-10T04:17:51.812Z,4.80
2022-11-10T04:20:21.366Z,3.10
2022-11-10T04:23:11.695Z,2.25
2022-11-10T04:26:05.300Z,1.85
2022-11-10T04:28:33.580Z,1.85
2022-11-10T04:31:01.898Z,1.80
2022-11-10T04:33:30.249Z,3.15
2022-11-10T04:35:59.919Z,3.03
2022-11-10T04:38:28.258Z,1.98
2022-11-10T04:40:56.622Z,2.88
2022-11-10T04:43:25.239Z,2.95
2022-11-10T04:45:53.832Z,2.30
2022-11-10T04:48:22.356Z,2.65
2022-11-10T04:50:50.632Z,1.75
2022-11-10T04:53:20.719Z,1.77
2022-11-10T04:55:49.245Z,2.03
2022-11-10T04:58:17.508Z,2.17
2022-11-10T05:00:45.801Z,2.08
2022-11-10T05:03:14.506Z,1.58
2022-11-10T05:05:42.985Z,2.83
2022-11-10T05:08:14.728Z,3.92
2022-11-10T05:10:48.853Z,3.95
2022-11-10T05:13:17.120Z,1.65
2022-11-10T05:15:52.455Z,4.28
2022-11-10T05:18:20.763Z,2.38
2022-11-10T05:20:49.890Z,2.20
2022-11-10T05:23:35.633Z,2.28
2022-11-10T05:26:05.399Z,1.52
2022-11-10T05:28:33.709Z,1.70
2022-11-10T05:31:01.983Z,1.58
2022-11-10T05:33:30.546Z,2.03
2022-11-10T05:35:58.904Z,3.67
2022-11-10T05:38:27.182Z,1.77
2022-11-10T05:40:55.495Z,2.50
2022-11-10T05:43:26.906Z,1.77
2022-11-10T05:45:55.277Z,4.22
2022-11-10T05:48:23.560Z,4.35
2022-11-10T05:50:56.221Z,5.50
2022-11-10T05:53:26.784Z,2.05
2022-11-10T05:55:56.792Z,2.92
2022-11-10T05:58:26.654Z,4.05
2022-11-10T06:00:54.982Z,2.45
2022-11-10T06:03:23.538Z,1.65
2022-11-10T06:05:54.302Z,4.32
2022-11-10T06:08:25.480Z,1.95
2022-11-10T06:10:54.540Z,2.20
2022-11-10T06:13:25.433Z,3.33
2022-11-10T06:15:56.665Z,2.97
2022-11-10T06:18:26.171Z,1.60
2022-11-10T06:20:54.527Z,5.25
2022-11-10T06:23:23.067Z,2.28
2022-11-10T06:25:51.594Z,2.85
2022-11-10T06:28:22.079Z,1.60
2022-11-10T06:30:50.473Z,2.83
2022-11-10T06:33:21.686Z,3.95
2022-11-10T06:35:55.864Z,2.80
2022-11-10T06:38:24.151Z,2.72
2022-11-10T06:40:52.510Z,3.05
2022-11-10T06:43:21.159Z,5.05
2022-11-10T06:45:57.732Z,1.23
2022-11-10T06:48:27.432Z,1.37
2022-11-10T06:50:57.329Z,1.90
2022-11-10T06:53:31.947Z,1.73
2022-11-10T06:56:00.437Z,1.98
2022-11-10T06:58:31.277Z,3.65
2022-11-10T07:01:00.658Z,3.58
2022-11-10T07:03:31.663Z,2.08
2022-11-10T07:06:02.116Z,2.70
2022-11-10T07:08:30.846Z,2.53
2022-11-10T07:10:59.131Z,2.67
2022-11-10T07:13:27.444Z,1.83
2022-11-10T07:15:58.472Z,2.55
2022-11-10T07:18:26.742Z,3.05
2022-11-10T07:20:56.363Z,2.85
2022-11-10T07:23:30.457Z,2.88
2022-11-10T07:26:00.206Z,3.42
2022-11-10T07:28:28.656Z,4.50
2022-11-10T07:31:02.071Z,2.17
2022-11-10T07:33:30.449Z,2.92
2022-11-10T07:36:00.954Z,3.78
2022-11-10T07:38:29.436Z,3.90
2022-11-10T07:41:00.306Z,3.53
2022-11-10T07:43:34.708Z,2.00
2022-11-10T07:46:04.236Z,2.72
2022-11-10T07:48:35.128Z,2.55
2022-11-10T07:51:04.937Z,4.20
2022-11-10T07:53:33.214Z,6.20
2022-11-10T07:56:09.820Z,3.78
2022-11-10T07:58:42.406Z,5.68
2022-11-10T08:01:11.138Z,13.27
2022-11-10T08:03:44.881Z,7.93
2022-11-10T08:06:16.632Z,7.22
2022-11-10T08:08:48.691Z,6.43
2022-11-10T08:11:16.974Z,10.48
2022-11-10T08:13:48.097Z,9.32
2022-11-10T08:16:18.702Z,4.60
2022-11-10T08:18:47.004Z,7.53
2022-11-10T08:21:19.120Z,6.40
2022-11-10T08:23:47.395Z,5.47
2022-11-10T08:26:19.817Z,9.25
2022-11-10T08:28:48.260Z,4.65
2022-11-10T08:31:16.574Z,4.05
2022-11-10T08:33:46.010Z,5.00
2022-11-10T08:36:25.026Z,2.28
2022-11-10T08:38:56.058Z,4.18
2022-11-10T08:41:24.334Z,5.93
2022-11-10T08:43:52.619Z,16.33
2022-11-10T08:46:20.956Z,9.27
2022-11-10T08:48:51.680Z,13.35
2022-11-10T08:51:21.327Z,11.85
2022-11-10T08:53:54.085Z,13.88
2022-11-10T08:56:22.633Z,19.33
2022-11-10T08:58:53.475Z,18.52
2022-11-10T09:01:22.222Z,19.02
2022-11-10T09:03:50.562Z,22.10
2022-11-10T09:06:18.856Z,18.45
2022-11-10T09:08:47.205Z,16.60
2022-11-10T09:11:16.857Z,25.20
2022-11-10T09:13:47.751Z,19.48
2022-11-10T09:16:21.383Z,21.65
2022-11-10T09:18:49.673Z,15.85
2022-11-10T09:21:20.564Z,18.02
2022-11-10T09:23:51.933Z,12.52
2022-11-10T09:26:21.611Z,16.30
2022-11-10T09:28:50.622Z,14.02
2022-11-10T09:31:18.973Z,13.60
2022-11-10T09:33:47.248Z,15.48
2022-11-10T09:36:20.345Z,8.60
2022-11-10T09:38:55.704Z,21.23
2022-11-10T09:41:29.785Z,10.82
2022-11-10T09:44:04.530Z,9.60
2022-11-10T09:46:36.224Z,12.60
2022-11-10T09:49:07.477Z,12.90
2022-11-10T09:51:43.966Z,8.65
2022-11-10T09:54:23.765Z,11.82
2022-11-10T09:56:55.933Z,8.63
2022-11-10T09:59:29.841Z,9.85
2022-11-10T10:02:03.432Z,9.65
2022-11-10T10:04:51.519Z,9.27
2022-11-10T10:07:23.781Z,7.53
2022-11-10T10:09:54.189Z,7.60
2022-11-10T10:12:32.125Z,7.95
2022-11-10T10:15:12.028Z,9.27
2022-11-10T10:17:43.377Z,6.47
2022-11-10T10:20:18.674Z,6.20
2022-11-10T10:23:05.187Z,9.13
2022-11-10T10:25:37.741Z,6.85
2022-11-10T10:28:13.334Z,5.80
2022-11-10T10:30:43.744Z,6.25
2022-11-10T10:33:16.130Z,5.47
2022-11-10T10:35:47.280Z,3.78
2022-11-10T10:38:20.798Z,6.10
2022-11-10T10:40:51.709Z,7.47
2022-11-10T10:43:21.339Z,4.43
2022-11-10T10:46:07.790Z,3.78
2022-11-10T10:48:38.498Z,7.40
2022-11-10T10:51:06.896Z,5.22
2022-11-10T10:53:36.146Z,5.50
2022-11-10T10:56:08.109Z,6.50
2022-11-10T10:58:49.175Z,7.40
2022-11-10T11:01:25.174Z,5.47
2022-11-10T11:03:53.970Z,3.67
2022-11-10T11:06:24.374Z,5.68
2022-11-10T11:09:00.424Z,3.50
2022-11-10T11:11:32.636Z,3.80
2022-11-10T11:14:20.306Z,5.20
2022-11-10T11:16:49.930Z,4.88
2022-11-10T11:19:18.954Z,2.67
2022-11-10T11:21:57.647Z,4.90
2022-11-10T11:24:30.334Z,2.03
2022-11-10T11:27:04.059Z,3.10
2022-11-10T11:30:09.755Z,8.85
2022-11-10T11:32:58.779Z,3.80
2022-11-10T11:35:31.895Z,6.65
2022-11-10T11:38:07.124Z,3.05
2022-11-10T11:40:49.724Z,6.68
2022-11-10T11:43:28.820Z,5.05
2022-11-10T11:46:03.225Z,4.57
2022-11-10T11:48:49.389Z,2.15
2022-11-10T11:51:19.548Z,3.38
2022-11-10T11:54:10.347Z,3.75
2022-11-10T11:56:40.287Z,3.40
2022-11-10T11:59:21.389Z,3.85
2022-11-10T12:02:04.433Z,6.22
2022-11-10T12:04:47.671Z,3.10
2022-11-10T12:07:35.520Z,3.45
2022-11-10T12:10:11.037Z,2.38
2022-11-10T12:13:03.908Z,5.22
2022-11-10T12:15:35.043Z,3.45
2022-11-10T12:18:11.195Z,2.28
2022-11-10T12:20:45.931Z,3.97
2022-11-10T12:23:17.301Z,2.35
2022-11-10T12:25:48.808Z,2.95
2022-11-10T12:28:18.827Z,5.43
2022-11-10T12:30:47.101Z,3.25
2022-11-10T12:33:21.174Z,4.75
2022-11-10T12:35:49.449Z,1.92
2022-11-10T12:38:19.121Z,5.50
2022-11-10T12:40:48.413Z,1.77
2022-11-10T12:43:19.819Z,2.15
2022-11-10T12:45:50.198Z,3.20
2022-11-10T12:48:19.999Z,3.83
2022-11-10T12:50:51.898Z,2.28
2022-11-10T12:53:25.815Z,2.70
2022-11-10T12:55:56.154Z,5.25
2022-11-10T12:58:24.745Z,2.85
2022-11-10T13:00:57.143Z,3.08
2022-11-10T13:03:29.820Z,4.53
2022-11-10T13:05:59.134Z,2.70
2022-11-10T13:08:39.070Z,3.20
2022-11-10T13:11:08.662Z,4.95
2022-11-10T13:13:43.220Z,3.47
2022-11-10T13:16:13.858Z,4.15
2022-11-10T13:19:01.756Z,2.63
2022-11-10T13:22:06.545Z,3.25
2022-11-10T13:24:35.984Z,2.22
2022-11-10T13:27:04.640Z,2.83
2022-11-10T13:29:53.141Z,2.75
2022-11-10T13:32:28.659Z,3.53
2022-11-10T13:35:38.280Z,2.13
2022-11-10T13:38:09.014Z,2.25
2022-11-10T13:40:40.965Z,2.53
2022-11-10T13:43:26.828Z,2.90
2022-11-10T13:46:05.224Z,1.60
2022-11-10T13:48:38.818Z,2.65
2022-11-10T13:51:13.872Z,3.13
2022-11-10T13:53:50.274Z,1.73
2022-11-10T13:56:23.673Z,2.45
2022-11-10T13:58:51.979Z,1.85
2022-11-10T14:01:27.974Z,2.78
2022-11-10T14:04:02.011Z,2.25
2022-11-10T14:06:41.877Z,2.20
2022-11-10T14:09:19.616Z,2.30
2022-11-10T14:11:50.249Z,2.50
2022-11-10T14:14:19.517Z,2.10
2022-11-10T14:16:47.802Z,1.30
2022-11-10T14:19:28.786Z,1.38
2022-11-10T14:21:59.608Z,1.88
2022-11-10T14:24:29.511Z,2.05
2022-11-10T14:26:58.903Z,1.35
2022-11-10T14:29:43.253Z,3.15
2022-11-10T14:32:16.209Z,2.33
2022-11-10T14:34:48.076Z,4.07
2022-11-10T14:37:21.793Z,3.20
2022-11-10T14:39:50.106Z,2.47
2022-11-10T14:42:23.286Z,1.52
2022-11-10T14:44:51.540Z,2.45
2022-11-10T14:47:27.109Z,4.57
2022-11-10T14:50:06.280Z,2.67
2022-11-10T14:52:38.808Z,1.33
2022-11-10T14:55:10.408Z,1.65
2022-11-10T14:57:39.377Z,1.80
2022-11-10T15:00:09.776Z,3.20
2022-11-10T15:02:38.130Z,3.72
2022-11-10T15:05:06.454Z,1.83
2022-11-10T15:07:36.078Z,3.22
2022-11-10T15:10:09.077Z,2.78
2022-11-10T15:12:41.890Z,1.70
2022-11-10T15:15:21.674Z,2.17
2022-11-10T15:17:51.247Z,1.00
2022-11-10T15:20:36.298Z,1.30
2022-11-10T15:23:06.890Z,1.00
2022-11-10T15:25:36.913Z,2.58
2022-11-10T15:28:07.628Z,0.88
2022-11-10T15:30:35.880Z,1.65
2022-11-10T15:33:10.288Z,1.98
2022-11-10T15:35:38.561Z,1.40
2022-11-10T15:38:21.530Z,1.35
2022-11-10T15:40:50.377Z,2.05
2022-11-10T15:43:29.207Z,4.72
2022-11-10T15:45:58.588Z,3.83
2022-11-10T15:48:27.318Z,2.58
2022-11-10T15:50:56.351Z,2.35
2022-11-10T15:53:33.388Z,2.15
2022-11-10T15:58:29.751Z,1.98
2022-11-10T16:00:58.075Z,2.17
2022-11-10T16:03:27.698Z,1.73
2022-11-10T16:05:55.949Z,4.15
2022-11-10T16:08:24.631Z,2.72
2022-11-10T16:10:57.319Z,2.08
2022-11-10T16:13:31.564Z,2.47
2022-11-10T16:16:00.277Z,1.92
2022-11-10T16:18:29.957Z,2.28
2022-11-10T16:20:58.245Z,2.13
2022-11-10T16:23:27.027Z,2.42
2022-11-10T16:25:56.941Z,0.60
2022-11-10T16:28:30.629Z,3.85
2022-11-10T16:30:58.915Z,1.73
2022-11-10T16:33:29.093Z,1.45
2022-11-10T16:35:57.696Z,1.65
2022-11-10T16:38:27.422Z,1.75
2022-11-10T16:40:58.088Z,0.93
2022-11-10T16:43:28.299Z,1.90
2022-11-10T16:45:58.111Z,1.30
2022-11-10T16:48:36.712Z,2.10
2022-11-10T16:51:05.320Z,2.42
2022-11-10T16:53:33.589Z,1.20
2022-11-10T16:56:06.359Z,3.83
2022-11-10T16:58:34.641Z,0.95
2022-11-10T17:01:03.481Z,1.92
2022-11-10T17:03:32.816Z,1.17
2022-11-10T17:06:01.098Z,1.58
2022-11-10T17:08:33.303Z,1.00
2022-11-10T17:11:03.216Z,1.58
2022-11-10T17:13:32.669Z,1.27
2022-11-10T17:16:03.676Z,1.25
2022-11-10T17:18:31.950Z,2.28
2022-11-10T17:21:00.276Z,4.03
2022-11-10T17:23:28.812Z,3.35
2022-11-10T17:25:57.289Z,5.00
2022-11-10T17:28:26.917Z,4.97
2022-11-10T17:30:56.199Z,5.35
2022-11-10T17:33:24.989Z,4.95
2022-11-10T17:35:53.672Z,5.20
2022-11-10T17:38:23.169Z,7.25
2022-11-10T17:40:51.630Z,8.93
2022-11-10T17:43:20.307Z,4.68
2022-11-10T17:45:50.114Z,6.80
2022-11-10T17:48:18.466Z,4.07
2022-11-10T17:50:47.409Z,5.95
2022-11-10T17:53:18.848Z,3.00
2022-11-10T17:55:47.943Z,5.32
2022-11-10T17:58:18.088Z,4.43
2022-11-10T18:00:46.477Z,4.75
2022-11-10T18:03:19.924Z,4.47
2022-11-10T18:05:48.483Z,4.55
2022-11-10T18:08:17.450Z,6.40
2022-11-10T18:10:47.620Z,6.47
2022-11-10T18:13:16.113Z,5.30
2022-11-10T18:15:49.970Z,2.47
2022-11-10T18:18:19.583Z,3.53
2022-11-10T18:20:47.917Z,5.82
2022-11-10T18:23:18.764Z,7.75
2022-11-10T18:25:50.192Z,6.05
2022-11-10T18:28:18.846Z,2.67
2022-11-10T18:30:47.254Z,3.17
2022-11-10T18:33:16.327Z,3.05
2022-11-10T18:35:47.886Z,4.30
2022-11-10T18:38:16.180Z,3.42
2022-11-10T18:40:44.455Z,3.42
2022-11-10T18:43:12.732Z,2.42
2022-11-10T18:45:41.177Z,2.35
2022-11-10T18:48:09.480Z,3.13
2022-11-10T18:50:38.702Z,3.28
2022-11-10T18:53:10.230Z,3.35
2022-11-10T18:55:41.798Z,3.17
2022-11-10T18:58:13.679Z,2.78
2022-11-10T19:00:41.958Z,1.08
2022-11-10T19:03:10.233Z,2.85
2022-11-10T19:05:57.350Z,2.35
2022-11-10T19:08:33.638Z,3.20
2022-11-10T19:11:05.576Z,3.38
2022-11-10T19:13:33.873Z,5.45
2022-11-10T19:16:05.060Z,6.07
2022-11-10T19:18:33.335Z,3.60
2022-11-10T19:21:05.603Z,2.85
2022-11-10T19:23:35.289Z,1.85
2022-11-10T19:26:17.894Z,1.45
2022-11-10T19:28:49.282Z,5.55
2022-11-10T19:31:23.571Z,1.70
2022-11-10T19:33:52.411Z,3.83
2022-11-10T19:36:21.445Z,2.50
2022-11-10T19:38:51.190Z,5.35
2022-11-10T19:41:25.005Z,1.02
2022-11-10T19:43:53.316Z,5.85
2022-11-10T19:46:22.827Z,5.15
2022-11-10T19:48:51.164Z,6.38
2022-11-10T19:51:23.087Z,4.78
2022-11-10T19:53:57.728Z,2.72
2022-11-10T19:56:30.451Z,3.25
2022-11-10T19:58:59.860Z,5.32
2022-11-10T20:01:28.289Z,4.30
2022-11-10T20:03:59.079Z,3.03
2022-11-10T20:06:27.355Z,1.63
2022-11-10T20:08:56.983Z,2.38
2022-11-10T20:11:27.750Z,3.75
2022-11-10T20:13:56.737Z,2.78
2022-11-10T20:16:26.699Z,1.65
2022-11-10T20:18:54.959Z,1.67
2022-11-10T20:21:23.962Z,1.98
2022-11-10T20:23:56.959Z,2.00
2022-11-10T20:26:25.505Z,3.92
2022-11-10T20:28:53.794Z,1.92
2022-11-10T20:31:24.395Z,1.45
2022-11-10T20:33:53.509Z,3.40
2022-11-10T20:36:22.809Z,1.85
2022-11-10T20:38:51.419Z,1.88
2022-11-10T20:41:21.931Z,1.77
2022-11-10T20:43:55.923Z,1.30
2022-11-10T20:46:55.274Z,1.50
2022-11-10T20:49:12.717Z,1.98
2022-11-10T20:51:41.386Z,1.30
2022-11-10T20:54:09.671Z,1.45
2022-11-10T20:56:41.888Z,2.28
2022-11-10T20:59:10.181Z,1.08
2022-11-10T21:01:38.546Z,2.22
2022-11-10T21:04:07.064Z,0.80
2022-11-10T21:06:35.391Z,3.95
2022-11-10T21:09:15.446Z,1.23
2022-11-10T21:12:02.479Z,1.83
2022-11-10T21:14:30.868Z,4.22
2022-11-10T21:17:04.994Z,2.33
2022-11-10T21:19:37.952Z,3.15
2022-11-10T21:22:06.461Z,0.80
2022-11-10T21:24:34.742Z,1.02
2022-11-10T21:27:04.924Z,1.20
2022-11-10T21:29:43.370Z,1.95
2022-11-10T21:32:11.645Z,0.80
2022-11-10T21:34:39.920Z,0.95
2022-11-10T21:37:08.197Z,1.17
2022-11-10T21:39:37.745Z,0.90
2022-11-10T21:42:07.392Z,2.08
2022-11-10T21:44:35.661Z,1.33
2022-11-10T21:47:06.753Z,1.23
2022-11-10T21:49:41.046Z,0.98
2022-11-10T21:52:09.477Z,0.93
2022-11-10T21:54:37.768Z,1.20
2022-11-10T21:57:11.562Z,1.73
2022-11-10T21:59:39.828Z,1.23
2022-11-10T22:02:09.462Z,1.20
2022-11-10T22:04:43.828Z,1.42
2022-11-10T22:07:24.213Z,2.20
2022-11-10T22:10:10.180Z,0.63
2022-11-10T22:13:00.434Z,0.90
2022-11-10T22:15:46.392Z,0.88
2022-11-10T22:18:33.215Z,3.33
2022-11-10T22:21:04.426Z,1.33
2022-11-10T22:23:52.811Z,2.78
2022-11-10T22:26:21.165Z,3.63
2022-11-10T22:28:50.761Z,2.47
2022-11-10T22:31:19.048Z,3.80
2022-11-10T22:33:47.353Z,0.85
2022-11-10T22:36:16.455Z,5.57
2022-11-10T22:38:47.389Z,2.72
2022-11-10T22:41:33.826Z,2.83
2022-11-10T22:44:06.437Z,2.25
2022-11-10T22:46:35.751Z,3.97
2022-11-10T22:49:05.728Z,2.40
2022-11-10T22:51:37.271Z,3.60
2022-11-10T22:54:05.883Z,2.20
2022-11-10T22:56:34.362Z,3.35
2022-11-10T22:59:03.997Z,1.65
2022-11-10T23:01:34.118Z,1.80
2022-11-10T23:04:02.679Z,2.80
2022-11-10T23:06:31.133Z,8.60
2022-11-10T23:08:59.555Z,4.30
2022-11-10T23:11:28.814Z,3.97
2022-11-10T23:13:57.109Z,4.57
2022-11-10T23:16:31.057Z,2.53
2022-11-10T23:18:59.621Z,4.53
2022-11-10T23:21:28.909Z,3.85
2022-11-10T23:23:59.371Z,3.35
2022-11-10T23:26:29.881Z,1.83
2022-11-10T23:28:58.144Z,2.38
2022-11-10T23:31:28.287Z,2.78
2022-11-10T23:33:57.915Z,3.53
2022-11-10T23:36:26.845Z,2.65
2022-11-10T23:38:55.614Z,2.03
2022-11-10T23:41:25.918Z,2.50
2022-11-10T23:43:54.244Z,1.67
2022-11-10T23:46:24.178Z,3.35
2022-11-10T23:48:52.628Z,2.22
2022-11-10T23:51:25.745Z,3.53
2022-11-10T23:53:54.007Z,3.95
2022-11-10T23:56:22.286Z,3.50
2022-11-10T23:58:50.561Z,3.38
